Time;durP1;ratioP1;P1;durP2;ratioP2;P2;SDS_P1;SDS_P2;PMS_P1;PMS_P2;Temp;Humidity;BMP_temperature;BMP_pressure;BME280_temperature;BME280_humidity;BME280_pressure;Samples;Min_cycle;Max_cycle;Signal;HPM_P1;HPM_P2
2022/01/25 00:08:19;;;;;;;14.97;11.70;;;3.20;99.90;;;;;;5032150;28;20457;-73
2022/01/25 00:10:13;;;;;;;21.67;13.67;;;3.30;99.90;;;;;;5009855;28;20464;-74
2022/01/25 00:26:37;;;;;;;24.57;15.80;;;3.20;99.90;;;;;;5001242;28;20434;-73
2022/01/25 00:29:07;;;;;;;30.13;14.60;;;3.30;99.90;;;;;;5010382;28;20482;-73
2022/01/25 00:31:37;;;;;;;16.47;12.70;;;3.30;99.90;;;;;;5010844;28;20490;-73
2022/01/25 00:34:04;;;;;;;24.17;13.13;;;3.30;99.90;;;;;;5012605;28;20473;-73
2022/01/25 00:36:31;;;;;;;22.83;13.87;;;3.30;99.90;;;;;;5011262;28;20490;-74
2022/01/25 00:38:58;;;;;;;20.67;13.73;;;3.30;99.90;;;;;;5011216;28;20462;-73
2022/01/25 00:41:26;;;;;;;21.53;15.20;;;3.30;99.90;;;;;;5012826;28;20871;-73
2022/01/25 00:43:57;;;;;;;24.90;14.47;;;3.30;99.90;;;;;;5010135;28;20455;-73
2022/01/25 00:46:24;;;;;;;20.57;12.80;;;3.30;99.90;;;;;;5011531;28;21296;-73
2022/01/25 00:48:54;;;;;;;23.27;14.00;;;3.20;99.90;;;;;;5006636;28;20453;-73
2022/01/25 00:51:56;;;;;;;16.80;12.83;;;3.20;99.90;;;;;;5012252;28;20564;-73
2022/01/25 00:54:16;;;;;;;24.57;15.40;;;3.20;99.90;;;;;;5011792;28;20438;-73
2022/01/25 00:56:45;;;;;;;20.60;13.50;;;3.20;99.90;;;;;;5012120;28;20569;-73
2022/01/25 00:59:18;;;;;;;19.77;13.83;;;3.20;99.90;;;;;;5011249;28;20463;-74
2022/01/25 01:01:46;;;;;;;24.47;15.13;;;3.20;99.90;;;;;;5010352;28;20463;-73
2022/01/25 01:04:13;;;;;;;20.60;12.93;;;3.30;99.90;;;;;;5011106;28;20946;-73
2022/01/25 01:06:43;;;;;;;18.83;12.53;;;3.30;99.90;;;;;;5011304;28;20450;-73
2022/01/25 01:09:10;;;;;;;20.57;14.13;;;3.30;99.90;;;;;;5000748;28;20463;-73
2022/01/25 01:11:43;;;;;;;22.00;14.80;;;3.30;99.90;;;;;;4992851;28;20479;-73
2022/01/25 01:14:17;;;;;;;24.13;14.43;;;3.30;99.90;;;;;;4992955;28;21005;-74
2022/01/25 01:17:07;;;;;;;23.80;13.93;;;3.20;99.90;;;;;;5001808;28;20478;-73
2022/01/25 01:30:40;;;;;;;22.20;15.00;;;3.30;99.90;;;;;;5011813;28;20511;-73
2022/01/25 01:33:34;;;;;;;27.67;16.47;;;3.30;99.90;;;;;;5012503;28;20450;-74
2022/01/25 01:41:45;;;;;;;26.40;16.07;;;3.20;99.90;;;;;;4990390;28;20826;-73
2022/01/25 01:44:20;;;;;;;27.03;16.20;;;3.20;99.90;;;;;;5005709;28;20488;-73
2022/01/25 01:47:00;;;;;;;22.27;14.00;;;3.20;99.90;;;;;;5011636;28;20453;-74
2022/01/25 01:49:29;;;;;;;25.10;14.40;;;3.20;99.90;;;;;;5011355;28;20815;-73
2022/01/25 01:51:56;;;;;;;20.53;13.47;;;3.10;99.90;;;;;;5006063;28;20868;-74
2022/01/25 01:54:23;;;;;;;24.33;15.30;;;3.10;99.90;;;;;;5008996;28;20473;-73
2022/01/25 01:56:50;;;;;;;25.23;15.07;;;3.00;99.90;;;;;;5010923;28;20490;-73
2022/01/25 01:59:18;;;;;;;25.83;15.50;;;3.00;99.90;;;;;;5010610;28;21088;-73
2022/01/25 02:01:46;;;;;;;30.60;17.40;;;3.00;99.90;;;;;;5011174;28;20458;-73
2022/01/25 02:04:19;;;;;;;23.30;15.20;;;3.00;99.90;;;;;;5005460;28;20502;-73
2022/01/25 02:06:47;;;;;;;23.57;14.67;;;3.00;99.90;;;;;;4992095;28;20451;-73
2022/01/25 02:09:14;;;;;;;20.97;14.63;;;3.00;99.90;;;;;;4997145;28;20481;-73
2022/01/25 02:11:41;;;;;;;27.40;14.80;;;3.00;99.90;;;;;;5001396;28;20549;-73
2022/01/25 02:14:12;;;;;;;32.73;15.90;;;3.10;99.90;;;;;;4996316;28;20954;-73
2022/01/25 02:16:55;;;;;;;23.90;14.90;;;3.10;99.90;;;;;;5010658;28;20486;-73
2022/01/25 02:24:52;;;;;;;22.10;14.23;;;3.00;99.90;;;;;;5003142;28;20454;-74
2022/01/25 02:27:18;;;;;;;20.77;13.40;;;3.00;99.90;;;;;;5010714;28;20454;-73
2022/01/25 02:29:45;;;;;;;22.80;14.30;;;3.00;99.90;;;;;;5011328;28;20470;-73
2022/01/25 02:32:14;;;;;;;19.83;13.43;;;3.10;99.90;;;;;;5014466;28;20454;-73
2022/01/25 02:34:41;;;;;;;20.37;14.50;;;3.00;99.90;;;;;;5006364;28;20447;-73
2022/01/25 02:37:11;;;;;;;24.53;15.00;;;3.00;99.90;;;;;;4996876;28;20533;-73
2022/01/25 02:39:39;;;;;;;21.00;13.57;;;3.10;99.90;;;;;;4995404;28;20450;-73
2022/01/25 02:42:07;;;;;;;18.47;13.27;;;3.10;99.90;;;;;;4995110;28;21009;-73
2022/01/25 02:44:35;;;;;;;22.23;14.40;;;3.10;99.90;;;;;;5003604;28;20501;-73
2022/01/25 02:49:46;;;;;;;27.77;16.60;;;3.10;99.90;;;;;;4995109;28;20557;-73
2022/01/25 02:52:14;;;;;;;23.33;15.73;;;3.10;99.90;;;;;;5006108;28;20458;-74
2022/01/25 02:54:41;;;;;;;19.60;13.30;;;3.10;99.90;;;;;;5014902;28;20466;-73
2022/01/25 02:57:08;;;;;;;21.03;14.00;;;3.10;99.90;;;;;;5014130;28;20562;-73
2022/01/25 02:59:35;;;;;;;21.73;13.57;;;3.00;99.90;;;;;;5014056;28;20509;-74
2022/01/25 03:02:02;;;;;;;22.03;13.30;;;3.00;99.90;;;;;;5004546;28;20975;-73
2022/01/25 03:04:29;;;;;;;18.20;12.63;;;3.00;99.90;;;;;;5001621;28;20462;-73
2022/01/25 03:06:56;;;;;;;23.40;13.93;;;3.00;99.90;;;;;;5014224;28;20454;-73
2022/01/25 03:09:24;;;;;;;26.87;15.10;;;3.00;99.90;;;;;;5014221;28;20445;-73
2022/01/25 03:11:53;;;;;;;26.33;15.63;;;3.10;99.90;;;;;;5014082;28;20985;-73
2022/01/25 03:14:22;;;;;;;24.60;15.40;;;3.10;99.90;;;;;;5009419;28;20487;-73
2022/01/25 03:17:05;;;;;;;20.63;14.70;;;3.10;99.90;;;;;;5002835;28;20478;-73
2022/01/25 03:19:47;;;;;;;26.53;14.47;;;3.10;99.90;;;;;;5008953;28;20459;-73
2022/01/25 03:22:18;;;;;;;26.77;15.10;;;3.10;99.90;;;;;;4998826;28;20488;-74
2022/01/25 03:24:48;;;;;;;25.80;15.27;;;3.20;99.90;;;;;;5001819;28;20554;-74
2022/01/25 03:27:15;;;;;;;28.80;17.10;;;3.20;99.90;;;;;;5013681;28;20796;-74
2022/01/25 03:29:42;;;;;;;21.30;14.23;;;3.10;99.90;;;;;;5013356;28;20485;-74
2022/01/25 03:32:09;;;;;;;25.40;15.40;;;3.10;99.90;;;;;;5013668;28;20958;-74
2022/01/25 03:34:35;;;;;;;25.97;16.50;;;3.10;99.90;;;;;;5013827;28;20508;-74
2022/01/25 03:37:03;;;;;;;21.57;13.30;;;3.10;99.90;;;;;;5013406;28;20904;-74
2022/01/25 03:39:29;;;;;;;28.53;15.73;;;3.10;99.90;;;;;;5013640;28;20458;-74
2022/01/25 03:41:58;;;;;;;24.60;15.30;;;3.10;99.90;;;;;;4996532;28;20458;-74
2022/01/25 03:44:24;;;;;;;32.90;16.10;;;3.10;99.90;;;;;;5002323;28;20485;-74
2022/01/25 03:47:02;;;;;;;30.47;17.90;;;3.20;99.90;;;;;;5001275;28;20463;-74
2022/01/25 03:52:13;;;;;;;30.67;17.00;;;3.00;99.90;;;;;;5008680;28;20456;-74
2022/01/25 03:54:40;;;;;;;26.87;16.33;;;3.00;99.90;;;;;;5013071;28;21024;-74
2022/01/25 03:57:08;;;;;;;28.57;17.53;;;2.90;99.90;;;;;;5013774;28;20536;-74
2022/01/25 03:59:35;;;;;;;27.70;17.57;;;2.90;99.90;;;;;;5013302;28;20454;-74
2022/01/25 04:02:02;;;;;;;32.97;19.00;;;2.90;99.90;;;;;;5013463;28;20513;-74
2022/01/25 04:04:30;;;;;;;26.77;16.17;;;2.90;99.90;;;;;;5004553;28;20465;-74
2022/01/25 04:06:57;;;;;;;28.27;17.20;;;2.90;99.90;;;;;;4993703;28;20494;-74
2022/01/25 04:09:23;;;;;;;27.27;17.10;;;2.90;99.90;;;;;;4996741;28;20558;-74
2022/01/25 04:11:50;;;;;;;25.47;16.60;;;2.90;99.90;;;;;;5013234;28;20475;-74
2022/01/25 04:14:18;;;;;;;23.63;15.67;;;2.90;99.90;;;;;;5013003;28;20509;-73
2022/01/25 04:16:52;;;;;;;25.90;15.83;;;2.90;99.90;;;;;;5013490;28;20508;-74
2022/01/25 04:19:29;;;;;;;28.47;16.70;;;2.90;99.90;;;;;;5012939;28;20454;-74
2022/01/25 04:25:01;;;;;;;31.23;18.50;;;2.90;99.90;;;;;;5011684;28;20450;-74
2022/01/25 04:27:28;;;;;;;30.07;18.00;;;2.90;99.90;;;;;;5000325;28;20518;-74
2022/01/25 04:29:56;;;;;;;31.57;18.83;;;2.90;99.90;;;;;;5003241;28;20470;-74
2022/01/25 04:32:32;;;;;;;31.80;20.10;;;2.90;99.90;;;;;;5013210;28;20927;-73
2022/01/25 04:35:10;;;;;;;28.80;17.50;;;2.90;99.90;;;;;;5012933;28;20573;-74
2022/01/25 04:54:10;;;;;;;23.50;14.43;;;2.90;99.90;;;;;;5008229;28;20508;-73
2022/01/25 04:56:42;;;;;;;25.33;16.20;;;2.90;99.90;;;;;;5012303;28;20828;-74
2022/01/25 04:59:16;;;;;;;32.10;14.97;;;2.90;99.90;;;;;;5012233;28;20520;-74
2022/01/25 05:01:45;;;;;;;24.43;15.37;;;2.80;99.90;;;;;;5012741;28;20517;-74
2022/01/25 05:04:17;;;;;;;25.17;15.13;;;2.80;99.90;;;;;;4996819;28;20981;-74
2022/01/25 05:06:46;;;;;;;24.53;15.50;;;2.70;99.90;;;;;;5002610;28;20538;-74
2022/01/25 05:09:14;;;;;;;21.87;13.20;;;2.70;99.90;;;;;;4992473;28;20455;-74
2022/01/25 05:11:45;;;;;;;26.93;15.63;;;2.70;99.90;;;;;;4993103;28;20916;-74
2022/01/25 05:14:22;;;;;;;26.57;15.17;;;2.60;99.90;;;;;;5008391;28;20466;-74
2022/01/25 05:16:54;;;;;;;23.43;14.90;;;2.60;99.90;;;;;;5011958;28;20508;-74
2022/01/25 05:19:35;;;;;;;26.63;16.10;;;2.50;99.90;;;;;;5011782;28;21005;-74
2022/01/25 05:22:05;;;;;;;28.47;15.13;;;2.50;99.90;;;;;;4995278;28;20463;-74
2022/01/25 05:24:32;;;;;;;25.60;15.20;;;2.50;99.90;;;;;;5011815;28;20450;-74
2022/01/25 05:26:59;;;;;;;26.87;14.43;;;2.50;99.90;;;;;;5012000;28;20458;-74
2022/01/25 05:29:26;;;;;;;23.50;14.73;;;2.50;99.90;;;;;;5011636;28;20943;-74
2022/01/25 05:31:54;;;;;;;26.93;14.93;;;2.50;99.90;;;;;;5011659;28;20512;-75
2022/01/25 05:34:21;;;;;;;30.63;15.67;;;2.50;99.90;;;;;;5010806;28;20564;-74
2022/01/25 05:36:47;;;;;;;28.00;16.43;;;2.50;99.90;;;;;;5006718;28;20450;-74
2022/01/25 05:39:18;;;;;;;26.07;16.30;;;2.50;99.90;;;;;;5011138;28;20493;-74
2022/01/25 05:41:53;;;;;;;28.33;14.67;;;2.60;99.90;;;;;;5004774;28;20454;-74
2022/01/25 05:44:26;;;;;;;29.30;16.53;;;2.60;99.90;;;;;;5010628;28;20458;-74
2022/01/25 05:47:05;;;;;;;27.30;15.00;;;2.70;99.90;;;;;;5011769;28;20833;-74
2022/01/25 05:49:34;;;;;;;26.70;15.57;;;2.70;99.90;;;;;;4998198;28;20482;-74
2022/01/25 05:52:01;;;;;;;26.70;17.03;;;2.70;99.90;;;;;;5032719;22;20490;-75
2022/01/25 05:54:27;;;;;;;28.40;15.80;;;2.70;99.90;;;;;;5011171;28;20461;-76
2022/01/25 05:56:54;;;;;;;26.43;15.27;;;2.70;99.90;;;;;;5003077;28;20458;-77
2022/01/25 05:59:21;;;;;;;25.20;14.00;;;2.70;99.90;;;;;;5006538;28;20498;-77
2022/01/25 06:01:48;;;;;;;27.57;16.17;;;2.70;99.90;;;;;;4989327;28;20533;-77
2022/01/25 06:04:17;;;;;;;30.13;15.90;;;2.60;99.90;;;;;;4991019;28;21018;-77
2022/01/25 06:06:43;;;;;;;26.67;15.73;;;2.60;99.90;;;;;;5008255;28;20453;-77
2022/01/25 06:09:10;;;;;;;28.03;16.50;;;2.60;99.90;;;;;;5010366;28;21004;-77
2022/01/25 06:11:37;;;;;;;36.07;16.83;;;2.60;99.90;;;;;;5010622;28;20998;-78
2022/01/25 06:14:04;;;;;;;31.00;17.37;;;2.60;99.90;;;;;;5025885;28;20488;-76
2022/01/25 06:16:31;;;;;;;31.97;17.93;;;2.60;99.90;;;;;;5027247;28;20461;-78
2022/01/25 06:18:58;;;;;;;27.33;16.60;;;2.50;99.90;;;;;;5017060;28;20478;-78
2022/01/25 06:21:27;;;;;;;26.13;15.00;;;2.60;99.90;;;;;;5009999;28;20481;-76
2022/01/25 06:23:53;;;;;;;33.17;18.27;;;2.60;99.90;;;;;;5012638;28;20779;-77
2022/01/25 06:26:20;;;;;;;28.03;15.17;;;2.60;99.90;;;;;;5028610;28;20453;-77
2022/01/25 06:28:47;;;;;;;29.50;15.20;;;2.60;99.90;;;;;;5008983;28;20450;-77
2022/01/25 06:31:15;;;;;;;28.00;16.67;;;2.50;99.90;;;;;;4990676;28;20482;-77
2022/01/25 06:33:43;;;;;;;29.27;17.33;;;2.50;99.90;;;;;;5008431;28;20468;-77
2022/01/25 06:36:10;;;;;;;30.63;17.00;;;2.40;99.90;;;;;;5027596;28;20461;-75
2022/01/25 06:38:38;;;;;;;34.27;18.13;;;2.40;99.90;;;;;;5016905;28;20486;-77
2022/01/25 06:41:05;;;;;;;31.37;18.00;;;2.40;99.90;;;;;;5009805;28;20481;-78
2022/01/25 06:43:32;;;;;;;33.27;16.67;;;2.40;99.90;;;;;;5009797;28;20562;-78
2022/01/25 06:46:03;;;;;;;28.03;14.90;;;2.40;99.90;;;;;;5021684;28;20526;-77
2022/01/25 06:48:30;;;;;;;27.10;15.33;;;2.50;99.90;;;;;;5011306;28;20454;-78
2022/01/25 06:50:57;;;;;;;31.07;16.93;;;2.50;99.90;;;;;;5019059;28;20482;-77
2022/01/25 06:53:24;;;;;;;25.83;15.90;;;2.50;99.90;;;;;;5013813;28;20509;-77
2022/01/25 06:55:52;;;;;;;35.97;18.83;;;2.50;99.90;;;;;;5019074;28;20932;-77
2022/01/25 06:58:18;;;;;;;27.90;16.53;;;2.50;99.90;;;;;;5027655;28;21129;-77
2022/01/25 07:00:45;;;;;;;28.00;17.30;;;2.40;99.90;;;;;;5027492;28;20891;-77
2022/01/25 07:03:12;;;;;;;29.77;15.80;;;2.50;99.90;;;;;;5027564;28;20523;-77
2022/01/25 07:05:40;;;;;;;24.97;15.23;;;2.50;99.90;;;;;;5028401;28;20877;-77
2022/01/25 07:08:07;;;;;;;29.17;16.30;;;2.50;99.90;;;;;;5028303;28;20519;-77
2022/01/25 07:10:33;;;;;;;28.53;15.43;;;2.50;99.90;;;;;;5028083;28;20527;-77
2022/01/25 07:13:02;;;;;;;31.70;15.93;;;2.50;99.90;;;;;;5029944;28;20449;-77
2022/01/25 07:15:28;;;;;;;32.30;17.17;;;2.50;99.90;;;;;;5030163;28;20453;-74
2022/01/25 07:17:55;;;;;;;29.30;16.27;;;2.50;99.90;;;;;;5031859;28;20515;-74
2022/01/25 07:20:22;;;;;;;25.13;15.90;;;2.50;99.90;;;;;;5033248;28;20469;-74
2022/01/25 07:22:48;;;;;;;28.67;15.50;;;2.60;99.90;;;;;;5033525;28;20484;-75
2022/01/25 07:25:15;;;;;;;30.47;17.23;;;2.60;99.90;;;;;;5033270;28;20504;-75
2022/01/25 07:27:42;;;;;;;25.27;15.43;;;2.60;99.90;;;;;;5033343;28;20464;-74
2022/01/25 07:30:10;;;;;;;32.77;15.23;;;2.60;99.90;;;;;;5020451;28;20450;-74
2022/01/25 07:32:37;;;;;;;28.37;16.30;;;2.70;99.90;;;;;;5013288;28;20512;-74
2022/01/25 07:35:04;;;;;;;27.07;15.70;;;2.70;99.90;;;;;;5013525;28;20516;-74
2022/01/25 07:37:31;;;;;;;27.13;15.63;;;2.70;99.90;;;;;;5013484;28;20940;-74
2022/01/25 07:39:58;;;;;;;27.50;17.03;;;2.70;99.90;;;;;;5012831;28;20494;-74
2022/01/25 07:42:27;;;;;;;25.27;15.23;;;2.70;99.90;;;;;;5013046;28;20446;-75
2022/01/25 07:44:54;;;;;;;24.30;14.87;;;2.80;99.90;;;;;;5012888;28;20454;-74
2022/01/25 07:47:22;;;;;;;28.00;16.30;;;2.70;99.90;;;;;;5012961;28;20881;-74
2022/01/25 07:49:48;;;;;;;29.47;16.27;;;2.70;99.90;;;;;;5012931;28;20451;-75
2022/01/25 07:52:15;;;;;;;28.27;15.90;;;2.70;99.90;;;;;;5012809;28;20530;-74
2022/01/25 07:54:42;;;;;;;24.17;16.00;;;2.80;99.90;;;;;;5012973;28;20488;-74
2022/01/25 07:57:09;;;;;;;30.60;16.70;;;2.70;99.90;;;;;;5012994;28;20538;-74
2022/01/25 07:59:35;;;;;;;26.63;15.30;;;2.70;99.90;;;;;;5012257;28;20517;-75
2022/01/25 08:02:02;;;;;;;30.50;17.23;;;2.70;99.90;;;;;;5012784;28;20527;-74
2022/01/25 08:04:30;;;;;;;26.67;15.03;;;2.70;99.90;;;;;;5012557;28;20501;-74
2022/01/25 08:06:57;;;;;;;29.80;15.93;;;2.70;99.90;;;;;;5012934;28;20458;-74
2022/01/25 08:09:23;;;;;;;27.97;16.63;;;2.70;99.90;;;;;;5012546;28;20446;-74
2022/01/25 08:11:50;;;;;;;30.60;16.07;;;2.70;99.90;;;;;;5012097;28;20478;-74
2022/01/25 08:14:18;;;;;;;34.13;15.80;;;2.70;99.90;;;;;;5012790;28;21020;-74
2022/01/25 08:16:46;;;;;;;30.97;16.60;;;2.60;99.90;;;;;;5012775;28;20462;-74
2022/01/25 08:19:14;;;;;;;31.70;17.57;;;2.60;99.90;;;;;;5012257;28;21060;-74
2022/01/25 08:21:42;;;;;;;29.77;16.83;;;2.60;99.90;;;;;;5012505;28;21044;-74
2022/01/25 08:24:11;;;;;;;31.50;17.90;;;2.60;99.90;;;;;;5012123;28;20465;-75
2022/01/25 08:26:38;;;;;;;29.70;16.30;;;2.60;99.90;;;;;;5012594;28;20462;-75
2022/01/25 08:29:06;;;;;;;31.13;17.87;;;2.60;99.90;;;;;;5011830;28;20454;-74
2022/01/25 08:31:33;;;;;;;32.80;17.30;;;2.60;99.90;;;;;;5012297;28;20525;-75
2022/01/25 08:34:00;;;;;;;36.37;17.33;;;2.60;99.90;;;;;;5012482;28;20450;-74
2022/01/25 08:36:27;;;;;;;31.53;18.20;;;2.60;99.90;;;;;;5012299;28;20450;-74
2022/01/25 08:38:56;;;;;;;32.30;18.10;;;2.70;99.90;;;;;;5011950;28;20569;-74
2022/01/25 08:41:23;;;;;;;33.23;17.70;;;2.70;99.90;;;;;;5012500;28;20466;-75
2022/01/25 08:43:50;;;;;;;35.90;19.07;;;2.70;99.90;;;;;;5012095;28;20873;-74
2022/01/25 08:46:17;;;;;;;31.63;16.50;;;2.70;99.90;;;;;;5012020;28;20454;-74
2022/01/25 08:48:45;;;;;;;31.47;17.40;;;2.70;99.90;;;;;;5011780;28;20446;-75
2022/01/25 08:51:13;;;;;;;34.33;18.63;;;2.70;99.90;;;;;;5011505;28;20524;-74
2022/01/25 08:53:40;;;;;;;30.60;17.57;;;2.70;99.90;;;;;;5012265;28;20481;-74
2022/01/25 08:56:09;;;;;;;32.33;16.70;;;2.80;99.90;;;;;;5011809;28;20886;-74
2022/01/25 08:58:36;;;;;;;41.90;18.03;;;2.70;99.90;;;;;;5011670;28;20489;-75
2022/01/25 09:01:03;;;;;;;36.77;17.37;;;2.70;99.90;;;;;;5011840;28;20537;-75
2022/01/25 09:03:30;;;;;;;34.60;17.73;;;2.70;99.90;;;;;;5011893;28;20450;-74
2022/01/25 09:05:56;;;;;;;39.20;17.40;;;2.70;99.90;;;;;;5011573;28;20942;-74
2022/01/25 09:08:26;;;;;;;41.47;16.87;;;2.70;99.90;;;;;;5011576;28;20458;-74
2022/01/25 09:10:57;;;;;;;36.80;18.70;;;2.70;99.90;;;;;;5010837;28;20510;-74
2022/01/25 09:13:26;;;;;;;35.30;17.60;;;2.80;99.90;;;;;;5017071;28;20873;-74
2022/01/25 09:15:53;;;;;;;35.30;17.43;;;2.80;99.90;;;;;;5011537;28;20504;-74
2022/01/25 09:18:20;;;;;;;33.27;17.30;;;2.70;99.90;;;;;;5013666;28;20504;-75
2022/01/25 09:20:47;;;;;;;43.40;17.40;;;2.80;99.90;;;;;;5015761;28;20466;-74
2022/01/25 09:23:16;;;;;;;39.70;16.77;;;2.80;99.90;;;;;;5015046;28;20501;-72
2022/01/25 09:25:43;;;;;;;38.37;16.60;;;2.80;99.90;;;;;;5014559;28;20460;-72
2022/01/25 09:28:10;;;;;;;36.50;18.33;;;2.80;99.90;;;;;;5014598;28;20450;-72
2022/01/25 09:30:38;;;;;;;31.63;17.40;;;2.90;99.90;;;;;;5012710;28;20478;-72
2022/01/25 09:33:05;;;;;;;42.50;19.13;;;2.80;99.90;;;;;;5012774;28;20533;-72
2022/01/25 09:35:32;;;;;;;33.13;17.30;;;2.80;99.90;;;;;;5012286;28;20497;-72
2022/01/25 09:37:59;;;;;;;33.00;16.60;;;2.80;99.90;;;;;;5013666;28;20489;-72
2022/01/25 09:40:26;;;;;;;46.23;16.87;;;2.80;99.90;;;;;;5012343;28;20493;-72
2022/01/25 09:42:56;;;;;;;29.63;16.30;;;2.80;99.90;;;;;;5015101;28;20450;-72
2022/01/25 09:45:23;;;;;;;33.20;16.67;;;2.70;99.90;;;;;;5013106;28;20466;-71
2022/01/25 09:47:52;;;;;;;33.70;17.47;;;2.90;99.90;;;;;;5014605;28;20458;-71
2022/01/25 09:50:19;;;;;;;32.90;16.77;;;2.90;99.90;;;;;;5012190;28;20485;-74
2022/01/25 09:52:46;;;;;;;35.83;17.67;;;2.90;99.90;;;;;;5011777;28;20520;-71
2022/01/25 09:55:15;;;;;;;34.80;17.53;;;2.90;99.90;;;;;;5013157;28;20454;-71
2022/01/25 09:57:42;;;;;;;38.60;18.17;;;2.90;99.90;;;;;;5012335;28;20450;-71
2022/01/25 10:00:12;;;;;;;38.80;19.70;;;2.90;99.90;;;;;;5012591;28;20521;-71
2022/01/25 10:02:47;;;;;;;35.77;16.93;;;2.80;99.90;;;;;;5012610;28;20454;-71
2022/01/25 10:05:23;;;;;;;43.47;17.23;;;2.80;99.90;;;;;;5012152;28;20461;-71
2022/01/25 10:07:58;;;;;;;35.30;17.27;;;2.80;99.90;;;;;;5012171;28;20493;-71
2022/01/25 10:10:29;;;;;;;37.40;18.40;;;2.80;99.90;;;;;;5011630;28;20862;-71
2022/01/25 10:13:06;;;;;;;31.77;16.20;;;2.90;99.90;;;;;;5012859;28;20474;-71
2022/01/25 10:15:33;;;;;;;37.00;18.33;;;2.90;99.90;;;;;;5012136;28;20469;-71
2022/01/25 10:18:00;;;;;;;43.00;18.63;;;2.90;99.90;;;;;;5011187;28;20462;-72
2022/01/25 10:20:31;;;;;;;33.17;18.60;;;2.90;99.90;;;;;;5011164;28;20501;-72
2022/01/25 10:23:00;;;;;;;38.97;18.80;;;2.90;99.90;;;;;;5013187;28;20454;-72
2022/01/25 10:25:34;;;;;;;43.13;18.77;;;2.90;99.90;;;;;;5011820;28;20458;-72
2022/01/25 10:28:02;;;;;;;30.50;17.57;;;2.90;99.90;;;;;;5013685;28;20486;-71
2022/01/25 10:30:37;;;;;;;33.67;18.13;;;2.90;99.90;;;;;;5010066;28;20857;-71
2022/01/25 10:33:23;;;;;;;32.73;17.03;;;2.90;99.90;;;;;;5010583;28;20508;-72
2022/01/25 10:35:52;;;;;;;44.47;18.93;;;2.90;99.90;;;;;;5010705;28;20450;-72
2022/01/25 10:38:23;;;;;;;35.67;17.77;;;3.00;99.90;;;;;;5010605;28;20453;-72
2022/01/25 10:41:02;;;;;;;34.77;17.13;;;3.00;99.90;;;;;;5010245;28;20485;-72
2022/01/25 10:43:30;;;;;;;37.63;17.87;;;3.00;99.90;;;;;;5010912;28;20457;-72
2022/01/25 10:46:15;;;;;;;36.10;17.00;;;3.00;99.90;;;;;;5010763;28;20946;-72
2022/01/25 10:48:45;;;;;;;38.17;16.63;;;3.00;99.90;;;;;;5010641;28;20457;-72
2022/01/25 10:51:17;;;;;;;33.20;16.90;;;3.00;99.90;;;;;;5011380;28;20616;-72
2022/01/25 10:53:44;;;;;;;32.17;16.90;;;3.00;99.90;;;;;;5014723;28;20446;-72
2022/01/25 10:56:11;;;;;;;33.00;16.67;;;3.00;99.90;;;;;;5014384;28;20454;-72
2022/01/25 10:58:40;;;;;;;33.10;17.00;;;3.00;99.90;;;;;;5014074;28;20461;-72
2022/01/25 11:01:10;;;;;;;31.17;16.37;;;3.00;99.90;;;;;;5013774;28;20552;-72
2022/01/25 11:03:39;;;;;;;29.27;16.20;;;3.00;99.90;;;;;;5016073;28;20458;-72
2022/01/25 11:06:14;;;;;;;28.80;16.00;;;3.00;99.90;;;;;;5014838;28;21008;-72
2022/01/25 11:08:42;;;;;;;29.30;14.60;;;2.90;99.90;;;;;;5014710;28;20510;-72
2022/01/25 11:11:11;;;;;;;30.63;15.67;;;2.80;99.90;;;;;;5015914;28;20521;-72
2022/01/25 11:13:42;;;;;;;30.67;15.70;;;2.80;99.90;;;;;;5016243;28;20486;-72
2022/01/25 11:16:11;;;;;;;34.90;15.50;;;2.70;99.90;;;;;;5015380;28;20504;-72
2022/01/25 11:18:38;;;;;;;36.27;14.80;;;2.70;99.90;;;;;;5015731;28;20446;-72
2022/01/25 11:21:08;;;;;;;29.40;15.40;;;2.70;99.90;;;;;;5014807;28;20490;-72
2022/01/25 11:23:39;;;;;;;30.90;16.90;;;2.80;99.90;;;;;;5017165;28;20482;-72
2022/01/25 11:26:08;;;;;;;31.37;15.50;;;2.90;99.90;;;;;;5015521;28;20476;-72
2022/01/25 11:28:36;;;;;;;35.60;17.13;;;2.90;99.90;;;;;;5015254;28;20454;-71
2022/01/25 11:31:07;;;;;;;32.50;15.87;;;2.90;99.90;;;;;;5015365;28;20465;-72
2022/01/25 11:33:35;;;;;;;33.90;17.50;;;2.90;99.90;;;;;;5015922;28;20465;-72
2022/01/25 11:36:07;;;;;;;34.03;16.00;;;3.00;99.90;;;;;;5016714;28;20970;-72
2022/01/25 11:38:41;;;;;;;27.93;14.67;;;2.90;99.90;;;;;;5015887;28;20469;-72
2022/01/25 11:41:12;;;;;;;34.50;15.63;;;2.90;99.90;;;;;;5015179;28;20521;-72
2022/01/25 11:43:42;;;;;;;31.83;16.97;;;2.90;99.90;;;;;;5015367;28;20530;-72
2022/01/25 11:46:09;;;;;;;31.10;16.13;;;3.00;99.90;;;;;;5014529;28;20516;-72
2022/01/25 11:48:41;;;;;;;35.17;16.10;;;3.00;99.90;;;;;;5014403;28;20446;-72
2022/01/25 11:51:15;;;;;;;30.83;15.30;;;3.00;99.90;;;;;;5038756;22;20994;-71
2022/01/25 11:53:45;;;;;;;32.30;15.87;;;3.00;99.90;;;;;;5014257;28;20454;-71
2022/01/25 11:56:13;;;;;;;34.87;17.57;;;3.00;99.90;;;;;;5013558;28;20442;-71
2022/01/25 11:58:40;;;;;;;30.20;15.40;;;3.00;99.90;;;;;;5013183;28;20533;-71
2022/01/25 12:01:15;;;;;;;29.40;14.93;;;3.00;99.90;;;;;;5013189;28;20493;-71
2022/01/25 12:03:45;;;;;;;32.50;15.73;;;3.00;99.90;;;;;;5012617;28;20457;-71
2022/01/25 12:06:18;;;;;;;41.07;14.73;;;3.00;99.90;;;;;;5013284;28;20538;-72
2022/01/25 12:09:05;;;;;;;26.70;13.93;;;3.00;99.90;;;;;;5013654;28;20451;-72
2022/01/25 12:11:37;;;;;;;33.37;15.80;;;3.00;99.90;;;;;;5013136;28;20462;-72
2022/01/25 12:14:11;;;;;;;32.50;16.57;;;2.90;99.90;;;;;;5013713;28;20497;-72
2022/01/25 12:16:43;;;;;;;28.17;15.60;;;2.90;99.90;;;;;;5013647;28;20453;-72
2022/01/25 12:19:11;;;;;;;26.00;14.30;;;3.00;99.90;;;;;;5013275;28;20967;-72
2022/01/25 12:22:03;;;;;;;27.97;13.80;;;3.00;99.90;;;;;;5013056;28;20580;-72
2022/01/25 12:24:36;;;;;;;29.27;14.03;;;3.00;99.90;;;;;;5013343;28;20808;-72
2022/01/25 12:27:09;;;;;;;24.90;14.07;;;3.00;99.90;;;;;;5013089;28;20460;-72
2022/01/25 12:29:40;;;;;;;28.37;13.80;;;3.00;99.90;;;;;;5012837;28;20501;-72
2022/01/25 12:32:21;;;;;;;27.47;13.73;;;2.90;99.90;;;;;;5012975;28;20525;-73
2022/01/25 12:35:11;;;;;;;23.90;13.60;;;2.90;99.90;;;;;;5013056;28;20454;-72
2022/01/25 12:38:10;;;;;;;34.13;15.30;;;3.00;99.90;;;;;;5013025;28;20484;-72
2022/01/25 12:40:47;;;;;;;25.57;14.60;;;3.00;99.90;;;;;;4971317;28;20511;-72
2022/01/25 12:43:18;;;;;;;24.17;13.77;;;3.00;99.90;;;;;;5006386;28;20496;-72
2022/01/25 12:45:49;;;;;;;33.33;13.47;;;3.00;99.90;;;;;;5012891;28;20958;-72
2022/01/25 12:48:18;;;;;;;24.60;13.80;;;3.00;99.90;;;;;;5012761;28;21171;-72
2022/01/25 12:50:47;;;;;;;28.13;14.27;;;2.90;99.90;;;;;;5012531;28;20549;-71
2022/01/25 12:53:16;;;;;;;28.40;14.60;;;2.90;99.90;;;;;;5012625;28;20834;-72
2022/01/25 12:55:47;;;;;;;30.30;15.40;;;2.80;99.90;;;;;;5012951;28;20508;-72
2022/01/25 12:58:14;;;;;;;33.00;16.37;;;2.80;99.90;;;;;;5012775;28;20446;-71
2022/01/25 13:00:43;;;;;;;34.87;15.40;;;2.80;99.90;;;;;;5012362;28;21076;-72
2022/01/25 13:03:19;;;;;;;29.17;15.13;;;2.90;99.90;;;;;;5012441;28;20458;-71
2022/01/25 13:05:47;;;;;;;29.87;14.20;;;2.80;99.90;;;;;;5012527;28;20452;-72
2022/01/25 13:08:19;;;;;;;34.40;15.33;;;2.90;99.90;;;;;;5012688;28;20489;-71
2022/01/25 13:10:49;;;;;;;28.90;15.60;;;2.90;99.90;;;;;;5012299;28;20475;-72
2022/01/25 13:13:24;;;;;;;28.73;15.17;;;2.90;99.90;;;;;;5012266;28;20454;-71
2022/01/25 13:15:56;;;;;;;30.80;15.60;;;3.00;99.90;;;;;;5012164;28;20493;-72
2022/01/25 13:18:24;;;;;;;35.10;16.10;;;2.90;99.90;;;;;;5011956;28;20458;-72
2022/01/25 13:21:01;;;;;;;30.67;14.73;;;2.90;99.90;;;;;;5012214;28;20528;-71
2022/01/25 13:23:28;;;;;;;34.87;15.27;;;2.90;99.90;;;;;;5012247;28;20445;-72
2022/01/25 13:26:07;;;;;;;29.63;14.30;;;2.90;99.90;;;;;;5012204;28;20450;-72
2022/01/25 13:28:38;;;;;;;30.93;14.83;;;2.90;99.90;;;;;;5011705;28;20446;-71
2022/01/25 13:31:08;;;;;;;28.97;12.20;;;2.90;99.90;;;;;;5012128;28;20466;-72
2022/01/25 13:33:35;;;;;;;28.67;14.07;;;2.90;99.90;;;;;;5012327;28;20873;-71
2022/01/25 13:36:03;;;;;;;30.73;14.20;;;2.90;99.90;;;;;;5012089;28;20500;-70
2022/01/25 13:38:32;;;;;;;25.60;13.20;;;2.80;99.90;;;;;;5011538;28;20881;-71
2022/01/25 13:41:17;;;;;;;28.47;13.70;;;2.90;99.90;;;;;;5011571;28;20552;-71
2022/01/25 13:46:33;;;;;;;34.80;13.13;;;2.90;99.90;;;;;;5012069;28;20449;-70
2022/01/25 13:49:04;;;;;;;25.53;13.67;;;2.80;99.90;;;;;;5011278;28;20454;-71
2022/01/25 13:51:37;;;;;;;39.93;14.33;;;2.90;99.90;;;;;;5011651;28;21260;-73
2022/01/25 13:54:04;;;;;;;28.30;13.70;;;2.90;99.90;;;;;;5011611;28;20993;-72
2022/01/25 13:56:34;;;;;;;30.80;12.93;;;2.90;99.90;;;;;;5011715;28;20446;-73
2022/01/25 13:59:03;;;;;;;22.80;13.20;;;2.90;99.90;;;;;;5011811;28;20514;-72